createdAt,value
2018-03-02T00:00:29.654Z,30.40
2018-03-02T00:01:29.650Z,29.20
2018-03-02T00:02:29.645Z,30.90
2018-03-02T00:03:29.637Z,31.30
2018-03-02T00:04:29.642Z,29.60
2018-03-02T00:05:29.615Z,30.90
2018-03-02T00:06:29.611Z,30.50
2018-03-02T00:07:29.616Z,30.40
2018-03-02T00:08:29.604Z,30.30
2018-03-02T00:09:29.600Z,30.80
2018-03-02T00:10:29.588Z,31.20
2018-03-02T00:11:29.602Z,30.70
2018-03-02T00:12:29.599Z,31.90
2018-03-02T00:13:29.600Z,30.50
2018-03-02T00:14:29.586Z,32.60
2018-03-02T00:15:29.587Z,32.50
2018-03-02T00:16:29.566Z,32.60
2018-03-02T00:17:29.571Z,32.50
2018-03-02T00:18:29.582Z,32.20
2018-03-02T00:19:29.582Z,31.90
2018-03-02T00:20:29.579Z,32.20
2018-03-02T00:21:29.576Z,32.30
2018-03-02T00:22:29.571Z,32.30
2018-03-02T00:23:29.558Z,31.80
2018-03-02T00:24:29.564Z,31.90
2018-03-02T00:25:29.543Z,32.10
2018-03-02T00:26:29.530Z,31.30
2018-03-02T00:27:29.536Z,32.00
2018-03-02T00:28:29.540Z,32.30
2018-03-02T00:29:29.525Z,33.60
2018-03-02T00:30:29.517Z,32.20
2018-03-02T00:31:29.634Z,32.10
2018-03-02T00:32:29.531Z,32.70
2018-03-02T00:33:29.515Z,31.70
2018-03-02T00:34:29.508Z,32.70
2018-03-02T00:35:29.508Z,33.30
2018-03-02T00:36:29.499Z,32.40
2018-03-02T00:37:29.497Z,31.20
2018-03-02T00:38:29.552Z,31.90
2018-03-02T00:39:29.493Z,32.30
2018-03-02T00:40:29.490Z,32.00
2018-03-02T00:41:29.496Z,32.80
2018-03-02T00:42:29.484Z,32.60
2018-03-02T00:43:29.479Z,31.70
2018-03-02T00:44:29.475Z,32.10
2018-03-02T00:45:29.468Z,31.90
2018-03-02T00:46:29.467Z,31.90
2018-03-02T00:47:29.464Z,31.90
2018-03-02T00:48:29.460Z,32.70
2018-03-02T00:49:29.454Z,32.40
2018-03-02T00:50:29.449Z,33.30
2018-03-02T00:51:29.460Z,32.90
2018-03-02T00:52:29.445Z,31.90
2018-03-02T00:53:29.461Z,32.60
2018-03-02T00:54:29.454Z,33.90
2018-03-02T00:55:29.435Z,33.40
2018-03-02T00:56:29.427Z,33.40
2018-03-02T00:57:29.426Z,35.40
2018-03-02T00:58:29.422Z,33.70
2018-03-02T00:59:29.434Z,32.70
2018-03-02T01:00:29.432Z,34.30
2018-03-02T01:01:29.525Z,34.80
2018-03-02T01:02:29.424Z,34.50
2018-03-02T01:03:29.415Z,34.70
2018-03-02T01:04:29.418Z,34.70
2018-03-02T01:05:29.412Z,35.80
2018-03-02T01:06:29.389Z,35.10
2018-03-02T01:07:29.400Z,35.50
2018-03-02T01:08:29.381Z,35.20
2018-03-02T01:09:29.378Z,33.50
2018-03-02T01:10:29.396Z,35.30
2018-03-02T01:11:29.373Z,34.60
2018-03-02T01:12:29.365Z,34.00
2018-03-02T01:13:29.377Z,34.30
2018-03-02T01:14:29.362Z,35.90
2018-03-02T01:15:29.353Z,34.70
2018-03-02T01:16:29.360Z,35.40
2018-03-02T01:17:29.349Z,33.80
2018-03-02T01:18:29.344Z,36.20
2018-03-02T01:19:29.354Z,34.30
2018-03-02T01:20:29.352Z,34.60
2018-03-02T01:21:29.351Z,33.50
2018-03-02T01:22:29.328Z,33.90
2018-03-02T01:23:29.338Z,36.10
2018-03-02T01:24:29.335Z,34.90
2018-03-02T01:25:29.332Z,33.90
2018-03-02T01:26:29.327Z,34.30
2018-03-02T01:27:29.308Z,36.20
2018-03-02T01:28:29.308Z,35.30
2018-03-02T01:29:29.300Z,34.40
2018-03-02T01:30:29.298Z,34.40
2018-03-02T01:31:29.985Z,34.80
2018-03-02T01:32:29.296Z,34.00
2018-03-02T01:33:29.285Z,36.70
2018-03-02T01:34:29.297Z,36.30
2018-03-02T01:35:29.277Z,34.70
2018-03-02T01:36:29.274Z,35.40
2018-03-02T01:37:29.274Z,35.50
2018-03-02T01:38:29.267Z,35.60
2018-03-02T01:39:29.262Z,35.90
2018-03-02T01:40:29.258Z,37.10
2018-03-02T01:41:29.259Z,34.90
2018-03-02T01:42:29.265Z,32.60
2018-03-02T01:43:29.247Z,31.80
2018-03-02T01:44:29.242Z,31.00
2018-03-02T01:45:29.255Z,30.20
2018-03-02T01:46:29.251Z,31.10
2018-03-02T01:47:29.246Z,30.00
2018-03-02T01:48:29.231Z,29.30
2018-03-02T01:49:29.223Z,29.50
2018-03-02T01:50:29.220Z,28.20
2018-03-02T01:51:29.220Z,25.80
2018-03-02T01:52:29.226Z,24.80
2018-03-02T01:53:29.210Z,25.30
2018-03-02T01:54:29.220Z,24.60
2018-03-02T01:55:29.199Z,25.40
2018-03-02T01:56:29.212Z,25.80
2018-03-02T01:57:29.197Z,25.70
2018-03-02T01:58:29.192Z,25.00
2018-03-02T01:59:29.204Z,24.70
2018-03-02T02:00:29.196Z,24.30
2018-03-02T02:01:29.281Z,24.20
2018-03-02T02:02:29.175Z,23.80
2018-03-02T02:03:29.177Z,22.30
2018-03-02T02:04:29.185Z,21.10
2018-03-02T02:05:29.166Z,21.10
2018-03-02T02:06:29.179Z,20.20
2018-03-02T02:07:29.170Z,20.50
2018-03-02T02:08:29.171Z,19.10
2018-03-02T02:09:29.152Z,19.00
2018-03-02T02:10:29.164Z,19.20
2018-03-02T02:11:29.143Z,19.60
2018-03-02T02:12:29.135Z,19.20
2018-03-02T02:13:29.147Z,19.90
2018-03-02T02:14:29.192Z,19.00
2018-03-02T02:15:29.138Z,18.50
2018-03-02T02:16:29.120Z,19.80
2018-03-02T02:17:29.133Z,18.90
2018-03-02T02:18:29.128Z,19.10
2018-03-02T02:19:29.123Z,19.00
2018-03-02T02:20:29.124Z,19.90
2018-03-02T02:21:29.120Z,19.30
2018-03-02T02:22:29.112Z,19.20
2018-03-02T02:23:29.108Z,19.40
2018-03-02T02:24:29.104Z,18.80
2018-03-02T02:25:29.101Z,19.50
2018-03-02T02:26:29.097Z,19.40
2018-03-02T02:27:29.092Z,19.30
2018-03-02T02:28:29.089Z,19.10
2018-03-02T02:29:29.087Z,18.90
2018-03-02T02:30:29.082Z,17.90
2018-03-02T02:31:29.081Z,18.70
2018-03-02T02:32:29.077Z,17.90
2018-03-02T02:33:29.076Z,17.10
2018-03-02T02:34:29.070Z,18.00
2018-03-02T02:35:29.066Z,18.00
2018-03-02T02:36:29.060Z,18.20
2018-03-02T02:37:29.055Z,17.30
2018-03-02T02:38:29.055Z,17.00
2018-03-02T02:39:29.050Z,17.10
2018-03-02T02:40:29.044Z,17.00
2018-03-02T02:41:29.041Z,17.50
2018-03-02T02:42:29.036Z,17.30
2018-03-02T02:43:29.034Z,17.40
2018-03-02T02:44:29.030Z,16.80
2018-03-02T02:45:29.025Z,17.20
2018-03-02T02:46:29.021Z,17.10
2018-03-02T02:47:29.018Z,16.50
2018-03-02T02:48:29.015Z,17.30
2018-03-02T02:49:29.014Z,17.70
2018-03-02T02:50:29.007Z,17.20
2018-03-02T02:51:29.008Z,17.30
2018-03-02T02:52:28.996Z,17.10
2018-03-02T02:53:28.998Z,16.80
2018-03-02T02:54:28.996Z,17.00
2018-03-02T02:55:28.985Z,17.00
2018-03-02T02:56:28.981Z,16.00
2018-03-02T02:57:28.984Z,16.60
2018-03-02T02:58:28.980Z,16.50
2018-03-02T02:59:28.976Z,16.80
2018-03-02T03:00:28.972Z,17.30
2018-03-02T03:01:29.075Z,15.90
2018-03-02T03:02:28.965Z,16.80
2018-03-02T03:03:28.961Z,17.70
2018-03-02T03:04:28.954Z,17.90
2018-03-02T03:05:28.949Z,17.00
2018-03-02T03:06:28.951Z,16.50
2018-03-02T03:07:28.940Z,16.60
2018-03-02T03:08:28.936Z,15.90
2018-03-02T03:09:28.936Z,15.90
2018-03-02T03:10:28.929Z,15.60
2018-03-02T03:11:28.926Z,16.40
2018-03-02T03:12:28.918Z,16.80
2018-03-02T03:13:28.915Z,15.90
2018-03-02T03:14:28.921Z,15.90
2018-03-02T03:15:28.910Z,16.20
2018-03-02T03:16:28.907Z,16.60
2018-03-02T03:17:28.903Z,16.00
2018-03-02T03:18:28.902Z,16.40
2018-03-02T03:19:28.897Z,16.40
2018-03-02T03:20:28.891Z,15.60
2018-03-02T03:21:28.883Z,16.40
2018-03-02T03:22:28.885Z,15.70
2018-03-02T03:23:28.878Z,16.30
2018-03-02T03:24:28.874Z,16.00
2018-03-02T03:25:28.868Z,17.30
2018-03-02T03:26:28.867Z,17.60
2018-03-02T03:27:28.866Z,17.10
2018-03-02T03:28:28.853Z,16.90
2018-03-02T03:29:28.856Z,16.60
2018-03-02T03:30:28.850Z,16.00
2018-03-02T03:31:28.848Z,16.60
2018-03-02T03:32:28.838Z,15.30
2018-03-02T03:33:28.839Z,15.90
2018-03-02T03:34:28.831Z,15.80
2018-03-02T03:35:28.824Z,15.70
2018-03-02T03:36:28.826Z,15.80
2018-03-02T03:37:28.921Z,16.00
2018-03-02T03:38:28.823Z,15.30
2018-03-02T03:39:28.813Z,15.70
2018-03-02T03:40:28.809Z,16.00
2018-03-02T03:41:28.803Z,15.60
2018-03-02T03:42:28.849Z,15.50
2018-03-02T03:43:28.794Z,15.30
2018-03-02T03:44:28.793Z,15.80
2018-03-02T03:45:28.788Z,15.40
2018-03-02T03:46:28.783Z,15.00
2018-03-02T03:47:28.777Z,16.20
2018-03-02T03:48:28.769Z,16.60
2018-03-02T03:49:28.769Z,16.70
2018-03-02T03:50:28.766Z,15.80
2018-03-02T03:51:28.760Z,15.80
2018-03-02T03:52:28.757Z,16.10
2018-03-02T03:53:28.753Z,16.20
2018-03-02T03:54:28.752Z,15.80
2018-03-02T03:55:28.746Z,15.80
2018-03-02T03:56:28.740Z,16.40
2018-03-02T03:57:28.739Z,15.10
2018-03-02T03:58:28.734Z,16.20
2018-03-02T03:59:28.727Z,15.70
2018-03-02T04:00:28.725Z,15.50
2018-03-02T04:01:28.719Z,15.70
2018-03-02T04:02:28.716Z,15.80
2018-03-02T04:03:28.712Z,15.70
2018-03-02T04:04:28.708Z,14.30
2018-03-02T04:05:29.279Z,15.80
2018-03-02T04:06:28.698Z,15.70
2018-03-02T04:07:28.688Z,15.80
2018-03-02T04:08:28.688Z,15.40
2018-03-02T04:09:28.685Z,15.90
2018-03-02T04:10:28.680Z,16.40
2018-03-02T04:11:28.673Z,15.50
2018-03-02T04:12:28.672Z,16.10
2018-03-02T04:13:28.677Z,15.90
2018-03-02T04:14:28.661Z,17.00
2018-03-02T04:15:28.655Z,17.20
2018-03-02T04:16:28.654Z,17.80
2018-03-02T04:17:28.652Z,16.80
2018-03-02T04:18:28.645Z,16.20
2018-03-02T04:19:28.639Z,17.10
2018-03-02T04:20:28.635Z,17.10
2018-03-02T04:21:28.635Z,17.70
2018-03-02T04:22:28.628Z,18.30
2018-03-02T04:23:28.622Z,17.50
2018-03-02T04:24:28.627Z,17.90
2018-03-02T04:25:28.618Z,17.20
2018-03-02T04:26:28.611Z,17.30
2018-03-02T04:27:28.608Z,17.50
2018-03-02T04:28:28.604Z,18.30
2018-03-02T04:29:28.598Z,17.50
2018-03-02T04:30:28.600Z,16.90
2018-03-02T04:31:28.684Z,17.40
2018-03-02T04:32:28.580Z,16.90
2018-03-02T04:33:28.576Z,17.80
2018-03-02T04:34:28.576Z,17.90
2018-03-02T04:35:28.574Z,17.90
2018-03-02T04:36:28.564Z,17.60
2018-03-02T04:37:28.562Z,17.20
2018-03-02T04:38:28.560Z,17.60
2018-03-02T04:39:28.553Z,17.80
2018-03-02T04:40:28.541Z,18.20
2018-03-02T04:41:28.543Z,16.90
2018-03-02T04:42:28.541Z,17.90
2018-03-02T04:43:28.533Z,17.00
2018-03-02T04:44:28.524Z,18.50
2018-03-02T04:45:28.526Z,18.20
2018-03-02T04:46:28.525Z,18.60
2018-03-02T04:47:28.512Z,18.20
2018-03-02T04:48:28.512Z,17.90
2018-03-02T04:49:28.508Z,18.50
2018-03-02T04:50:28.505Z,18.80
2018-03-02T04:51:28.499Z,18.70
2018-03-02T04:52:28.495Z,19.10
2018-03-02T04:53:28.486Z,19.50
2018-03-02T04:54:28.485Z,20.50
2018-03-02T04:55:28.478Z,20.40
2018-03-02T04:56:28.479Z,21.60
2018-03-02T04:57:28.474Z,22.20
2018-03-02T04:58:28.474Z,20.90
2018-03-02T04:59:28.465Z,21.10
2018-03-02T05:00:28.461Z,20.70
2018-03-02T05:01:28.561Z,21.60
2018-03-02T05:02:28.454Z,21.70
2018-03-02T05:03:28.443Z,20.30
2018-03-02T05:04:28.448Z,21.10
2018-03-02T05:05:28.439Z,21.30
2018-03-02T05:06:28.435Z,21.50
2018-03-02T05:07:28.436Z,22.70
2018-03-02T05:08:28.427Z,22.50
2018-03-02T05:09:28.420Z,21.50
2018-03-02T05:10:28.425Z,21.50
2018-03-02T05:11:28.416Z,21.80
2018-03-02T05:12:28.409Z,22.40
2018-03-02T05:13:28.399Z,22.80
2018-03-02T05:14:28.389Z,21.40
2018-03-02T05:15:28.398Z,22.80
2018-03-02T05:16:28.380Z,22.50
2018-03-02T05:17:28.375Z,24.20
2018-03-02T05:18:28.362Z,22.70
2018-03-02T05:19:28.380Z,23.20
2018-03-02T05:20:28.359Z,23.90
2018-03-02T05:21:28.373Z,23.30
2018-03-02T05:22:28.369Z,22.80
2018-03-02T05:23:28.345Z,23.90
2018-03-02T05:24:28.342Z,23.30
2018-03-02T05:25:28.332Z,23.10
2018-03-02T05:26:28.333Z,23.80
2018-03-02T05:27:28.340Z,24.10
2018-03-02T05:28:28.316Z,23.60
2018-03-02T05:29:28.323Z,24.00
2018-03-02T05:30:28.315Z,24.30
2018-03-02T05:31:28.316Z,26.00
2018-03-02T05:32:28.305Z,25.40
2018-03-02T05:33:28.319Z,25.30
2018-03-02T05:34:28.314Z,24.50
2018-03-02T05:35:28.287Z,24.70
2018-03-02T05:36:28.300Z,24.60
2018-03-02T05:37:28.288Z,25.40
2018-03-02T05:38:28.280Z,26.10
2018-03-02T05:39:28.276Z,26.00
2018-03-02T05:40:28.291Z,26.30
2018-03-02T05:41:28.260Z,27.10
2018-03-02T05:42:28.278Z,26.10
2018-03-02T05:43:28.257Z,26.60
2018-03-02T05:44:28.251Z,25.70
2018-03-02T05:45:28.247Z,26.70
2018-03-02T05:46:28.248Z,25.50
2018-03-02T05:47:28.232Z,26.50
2018-03-02T05:48:28.232Z,25.80
2018-03-02T05:49:28.229Z,26.10
2018-03-02T05:50:28.219Z,26.30
2018-03-02T05:51:28.220Z,25.50
2018-03-02T05:52:28.215Z,27.10
2018-03-02T05:53:28.206Z,25.60
2018-03-02T05:54:28.200Z,27.00
2018-03-02T05:55:28.201Z,27.40
2018-03-02T05:56:28.198Z,26.70
2018-03-02T05:57:28.192Z,27.50
2018-03-02T05:58:28.182Z,26.30
2018-03-02T05:59:28.184Z,25.40
2018-03-02T06:00:28.180Z,25.80
2018-03-02T06:01:28.275Z,27.00
2018-03-02T06:02:28.166Z,26.80
2018-03-02T06:03:28.168Z,24.80
2018-03-02T06:04:28.156Z,25.40
2018-03-02T06:05:28.162Z,26.40
2018-03-02T06:06:28.148Z,25.20
2018-03-02T06:07:28.197Z,25.20
2018-03-02T06:08:28.142Z,25.70
2018-03-02T06:09:28.138Z,25.40
2018-03-02T06:10:28.128Z,25.60
2018-03-02T06:11:28.124Z,25.70
2018-03-02T06:12:28.121Z,25.30
2018-03-02T06:13:28.219Z,25.50
2018-03-02T06:14:28.116Z,25.30
2018-03-02T06:15:28.115Z,25.80
2018-03-02T06:16:28.107Z,25.80
2018-03-02T06:17:28.102Z,24.60
2018-03-02T06:18:28.098Z,23.40
2018-03-02T06:19:28.086Z,24.10
2018-03-02T06:20:28.110Z,24.00
2018-03-02T06:21:28.084Z,23.50
2018-03-02T06:22:28.079Z,24.00
2018-03-02T06:23:28.069Z,24.20
2018-03-02T06:24:28.092Z,24.60
2018-03-02T06:25:28.065Z,28.10
2018-03-02T06:26:28.074Z,29.80
2018-03-02T06:27:28.073Z,30.30
2018-03-02T06:28:28.064Z,29.00
2018-03-02T06:29:28.048Z,33.00
2018-03-02T06:30:28.055Z,34.10
2018-03-02T06:31:28.050Z,31.60
2018-03-02T06:32:28.034Z,31.50
2018-03-02T06:33:28.029Z,31.40
2018-03-02T06:34:28.037Z,29.40
2018-03-02T06:35:28.020Z,29.50
2018-03-02T06:36:28.008Z,28.80
2018-03-02T06:37:28.016Z,30.10
2018-03-02T06:38:28.018Z,29.60
2018-03-02T06:39:28.024Z,29.20
2018-03-02T06:40:28.014Z,27.80
2018-03-02T06:41:28.010Z,29.10
2018-03-02T06:42:27.987Z,33.70
2018-03-02T06:43:27.983Z,35.00
2018-03-02T06:44:27.990Z,34.70
2018-03-02T06:45:27.973Z,33.50
2018-03-02T06:46:27.985Z,35.30
2018-03-02T06:47:27.957Z,35.60
2018-03-02T06:48:27.976Z,34.30
2018-03-02T06:49:27.954Z,34.60
2018-03-02T06:50:27.963Z,35.90
2018-03-02T06:51:27.966Z,34.20
2018-03-02T06:52:27.952Z,33.10
2018-03-02T06:53:27.957Z,34.50
2018-03-02T06:54:27.950Z,32.60
2018-03-02T06:55:27.935Z,33.30
2018-03-02T06:56:27.940Z,33.20
2018-03-02T06:57:27.931Z,30.60
2018-03-02T06:58:27.906Z,32.80
2018-03-02T06:59:27.921Z,31.30
2018-03-02T07:00:27.921Z,30.70
2018-03-02T07:01:27.992Z,30.10
2018-03-02T07:02:27.908Z,31.60
2018-03-02T07:03:27.897Z,33.30
2018-03-02T07:04:27.877Z,31.70
2018-03-02T07:05:27.897Z,36.10
2018-03-02T07:06:27.896Z,36.30
2018-03-02T07:07:27.867Z,37.20
2018-03-02T07:08:27.866Z,36.70
2018-03-02T07:09:27.874Z,34.20
2018-03-02T07:10:27.869Z,34.70
2018-03-02T07:11:27.864Z,35.90
2018-03-02T07:12:27.863Z,34.40
2018-03-02T07:13:27.854Z,35.10
2018-03-02T07:14:27.849Z,35.70
2018-03-02T07:15:27.838Z,37.50
2018-03-02T07:16:27.844Z,34.60
2018-03-02T07:17:27.826Z,36.30
2018-03-02T07:18:27.834Z,36.30
2018-03-02T07:19:27.809Z,35.70
2018-03-02T07:20:27.824Z,36.80
2018-03-02T07:21:27.839Z,37.30
2018-03-02T07:22:27.789Z,36.20
2018-03-02T07:23:27.785Z,37.50
2018-03-02T07:24:27.804Z,37.10
2018-03-02T07:25:27.777Z,38.30
2018-03-02T07:26:27.781Z,36.80
2018-03-02T07:27:27.785Z,35.60
2018-03-02T07:28:27.785Z,36.70
2018-03-02T07:29:27.816Z,37.30
2018-03-02T07:30:27.767Z,36.50
2018-03-02T07:31:27.756Z,37.00
2018-03-02T07:32:27.756Z,36.50
2018-03-02T07:33:27.761Z,37.10
2018-03-02T07:34:27.742Z,36.70
2018-03-02T07:35:27.734Z,36.30
2018-03-02T07:36:27.749Z,36.60
2018-03-02T07:37:27.742Z,36.60
2018-03-02T07:38:27.720Z,36.40
2018-03-02T07:39:27.730Z,37.20
2018-03-02T07:40:27.711Z,36.80
2018-03-02T07:41:27.721Z,37.60
2018-03-02T07:42:27.702Z,37.40
2018-03-02T07:43:27.794Z,36.60
2018-03-02T07:44:27.706Z,38.50
2018-03-02T07:45:27.687Z,37.60
2018-03-02T07:46:27.682Z,39.20
2018-03-02T07:47:27.676Z,36.80
2018-03-02T07:48:27.687Z,36.80
2018-03-02T07:49:27.665Z,37.90
2018-03-02T07:50:27.678Z,36.30
2018-03-02T07:51:28.222Z,37.30
2018-03-02T07:52:27.653Z,38.70
2018-03-02T07:53:27.648Z,37.00
2018-03-02T07:54:27.657Z,39.10
2018-03-02T07:55:27.637Z,39.00
2018-03-02T07:56:27.647Z,38.30
2018-03-02T07:57:27.647Z,38.20
2018-03-02T07:58:27.638Z,37.70
2018-03-02T07:59:27.617Z,38.20
2018-03-02T08:00:27.628Z,37.40
2018-03-02T08:01:27.704Z,37.30
2018-03-02T08:02:27.603Z,38.40
2018-03-02T08:03:27.600Z,39.20
2018-03-02T08:04:27.619Z,36.90
2018-03-02T08:05:27.603Z,39.20
2018-03-02T08:06:27.598Z,39.50
2018-03-02T08:07:27.576Z,40.40
2018-03-02T08:08:27.587Z,39.10
2018-03-02T08:09:27.583Z,39.90
2018-03-02T08:10:27.578Z,40.30
2018-03-02T08:11:27.572Z,38.70
2018-03-02T08:12:27.572Z,39.10
2018-03-02T08:13:27.660Z,39.80
2018-03-02T08:14:27.544Z,39.50
2018-03-02T08:15:27.552Z,40.00
2018-03-02T08:16:27.538Z,41.50
2018-03-02T08:17:27.529Z,41.70
2018-03-02T08:18:27.538Z,40.20
2018-03-02T08:19:27.521Z,38.20
2018-03-02T08:20:27.538Z,40.00
2018-03-02T08:21:27.508Z,38.40
2018-03-02T08:22:27.518Z,37.30
2018-03-02T08:23:27.501Z,38.20
2018-03-02T08:24:27.489Z,37.60
2018-03-02T08:25:27.503Z,36.50
2018-03-02T08:26:27.498Z,37.30
2018-03-02T08:27:27.472Z,37.00
2018-03-02T08:28:27.491Z,36.30
2018-03-02T08:29:27.483Z,36.90
2018-03-02T08:30:27.478Z,37.10
2018-03-02T08:31:27.569Z,36.70
2018-03-02T08:32:27.453Z,38.00
2018-03-02T08:33:27.446Z,39.40
2018-03-02T08:34:27.443Z,40.50
2018-03-02T08:35:27.452Z,39.40
2018-03-02T08:36:27.444Z,40.30
2018-03-02T08:37:27.425Z,40.80
2018-03-02T08:38:27.418Z,39.30
2018-03-02T08:39:27.433Z,38.60
2018-03-02T08:40:27.409Z,37.00
2018-03-02T08:41:27.423Z,37.10
2018-03-02T08:42:27.401Z,39.10
2018-03-02T08:43:27.503Z,37.00
2018-03-02T08:44:27.407Z,37.70
2018-03-02T08:45:27.388Z,38.00
2018-03-02T08:46:27.398Z,37.00
2018-03-02T08:47:27.388Z,38.60
2018-03-02T08:48:27.376Z,37.30
2018-03-02T08:49:27.372Z,38.40
2018-03-02T08:50:27.353Z,36.80
2018-03-02T08:51:27.362Z,36.10
2018-03-02T08:52:27.368Z,35.90
2018-03-02T08:53:27.348Z,36.40
2018-03-02T08:54:27.358Z,36.40
2018-03-02T08:55:27.337Z,37.30
2018-03-02T08:56:27.347Z,37.40
2018-03-02T08:57:27.323Z,35.20
2018-03-02T08:58:27.328Z,36.60
2018-03-02T08:59:27.330Z,35.10
2018-03-02T09:00:27.302Z,35.70
2018-03-02T09:01:27.312Z,36.60
2018-03-02T09:02:27.309Z,36.40
2018-03-02T09:03:27.296Z,35.50
2018-03-02T09:04:27.300Z,37.30
2018-03-02T09:05:27.296Z,37.80
2018-03-02T09:06:27.297Z,37.10
2018-03-02T09:07:27.286Z,36.40
2018-03-02T09:08:27.285Z,35.90
2018-03-02T09:09:27.263Z,36.30
2018-03-02T09:10:27.262Z,36.60
2018-03-02T09:11:27.268Z,35.60
2018-03-02T09:12:27.246Z,36.40
2018-03-02T09:13:27.263Z,36.40
2018-03-02T09:14:27.240Z,36.30
2018-03-02T09:15:27.251Z,35.70
2018-03-02T09:16:27.228Z,35.60
2018-03-02T09:17:27.232Z,34.30
2018-03-02T09:18:27.232Z,34.30
2018-03-02T09:19:27.208Z,34.40
2018-03-02T09:20:27.204Z,35.30
2018-03-02T09:21:27.220Z,34.70
2018-03-02T09:22:27.215Z,34.90
2018-03-02T09:23:27.184Z,33.80
2018-03-02T09:24:27.183Z,34.20
2018-03-02T09:25:27.196Z,35.30
2018-03-02T09:26:27.179Z,34.50
2018-03-02T09:27:27.173Z,34.40
2018-03-02T09:28:27.185Z,35.00
2018-03-02T09:29:27.171Z,33.80
2018-03-02T09:30:27.154Z,33.80
2018-03-02T09:31:27.166Z,33.90
2018-03-02T09:32:27.148Z,33.80
2018-03-02T09:33:27.204Z,34.00
2018-03-02T09:34:27.139Z,35.60
2018-03-02T09:35:27.133Z,34.70
2018-03-02T09:36:27.143Z,33.40
2018-03-02T09:37:27.133Z,34.20
2018-03-02T09:38:27.136Z,32.80
2018-03-02T09:39:27.130Z,34.40
2018-03-02T09:40:27.101Z,34.70
2018-03-02T09:41:27.117Z,33.50
2018-03-02T09:42:27.095Z,35.70
2018-03-02T09:43:27.106Z,35.40
2018-03-02T09:44:27.079Z,35.20
2018-03-02T09:45:27.099Z,35.40
2018-03-02T09:46:27.070Z,36.80
2018-03-02T09:47:27.088Z,33.60
2018-03-02T09:48:27.077Z,35.00
2018-03-02T09:49:27.061Z,35.00
2018-03-02T09:50:27.074Z,35.10
2018-03-02T09:51:27.052Z,35.20
2018-03-02T09:52:27.051Z,35.20
2018-03-02T09:53:27.038Z,34.30
2018-03-02T09:54:27.049Z,34.40
2018-03-02T09:55:27.025Z,36.00
2018-03-02T09:56:27.021Z,35.40
2018-03-02T09:57:27.038Z,35.70
2018-03-02T09:58:27.030Z,34.60
2018-03-02T09:59:27.009Z,34.40
2018-03-02T10:00:27.003Z,35.40
2018-03-02T10:01:27.016Z,35.40
2018-03-02T10:02:27.011Z,36.10
2018-03-02T10:03:27.005Z,34.50
2018-03-02T10:04:26.983Z,35.60
2018-03-02T10:05:27.001Z,35.60
2018-03-02T10:06:26.979Z,36.30
2018-03-02T10:07:26.986Z,35.20
2018-03-02T10:08:26.969Z,36.30
2018-03-02T10:09:26.983Z,35.60
2018-03-02T10:10:26.956Z,35.60
2018-03-02T10:11:26.970Z,36.90
2018-03-02T10:12:26.962Z,37.20
2018-03-02T10:13:26.958Z,37.70
2018-03-02T10:14:26.935Z,37.90
2018-03-02T10:15:26.953Z,37.10
2018-03-02T10:16:26.943Z,35.80
2018-03-02T10:17:26.939Z,36.40
2018-03-02T10:18:26.939Z,34.40
2018-03-02T10:19:26.927Z,36.00
2018-03-02T10:20:26.932Z,34.50
2018-03-02T10:21:26.917Z,36.50
2018-03-02T10:22:26.913Z,36.80
2018-03-02T10:23:26.913Z,36.20
2018-03-02T10:24:26.908Z,35.30
2018-03-02T10:25:26.904Z,33.50
2018-03-02T10:26:26.899Z,35.30
2018-03-02T10:27:26.888Z,36.00
2018-03-02T10:28:26.889Z,35.50
2018-03-02T10:29:26.885Z,36.90
2018-03-02T10:30:26.873Z,35.40
2018-03-02T10:31:26.974Z,36.60
2018-03-02T10:32:26.864Z,35.70
2018-03-02T10:33:26.865Z,36.30
2018-03-02T10:34:26.891Z,36.70
2018-03-02T10:35:26.854Z,36.40
2018-03-02T10:36:26.850Z,38.50
2018-03-02T10:37:26.840Z,36.90
2018-03-02T10:38:26.845Z,35.80
2018-03-02T10:39:26.842Z,38.60
2018-03-02T10:40:26.836Z,36.40
2018-03-02T10:41:26.832Z,36.20
2018-03-02T10:42:26.817Z,36.50
2018-03-02T10:43:26.821Z,35.50
2018-03-02T10:44:26.817Z,36.00
2018-03-02T10:45:26.809Z,36.00
2018-03-02T10:46:26.809Z,34.10
2018-03-02T10:47:26.800Z,35.90
2018-03-02T10:48:26.796Z,35.20
2018-03-02T10:49:26.794Z,35.40
2018-03-02T10:50:26.788Z,36.00
2018-03-02T10:51:26.769Z,36.70
2018-03-02T10:52:26.778Z,36.50
2018-03-02T10:53:26.778Z,34.40
2018-03-02T10:54:26.755Z,35.40
2018-03-02T10:55:26.750Z,36.90
2018-03-02T10:56:26.747Z,37.90
2018-03-02T10:57:26.762Z,36.10
2018-03-02T10:58:26.761Z,37.60
2018-03-02T10:59:26.733Z,36.60
2018-03-02T11:00:26.735Z,35.90
2018-03-02T11:01:26.823Z,36.00
2018-03-02T11:02:26.719Z,39.40
2018-03-02T11:03:26.736Z,38.90
2018-03-02T11:04:26.728Z,37.80
2018-03-02T11:05:26.724Z,39.20
2018-03-02T11:06:26.720Z,39.70
2018-03-02T11:07:26.701Z,40.70
2018-03-02T11:08:26.711Z,39.90
2018-03-02T11:09:26.692Z,39.30
2018-03-02T11:10:26.689Z,39.20
2018-03-02T11:11:26.680Z,37.10
2018-03-02T11:12:26.694Z,36.90
2018-03-02T11:13:26.694Z,39.00
2018-03-02T11:14:26.669Z,37.90
2018-03-02T11:15:26.682Z,38.60
2018-03-02T11:16:26.662Z,37.80
2018-03-02T11:17:26.657Z,38.60
2018-03-02T11:18:26.656Z,38.60
2018-03-02T11:19:26.669Z,40.20
2018-03-02T11:20:26.647Z,42.10
2018-03-02T11:21:26.662Z,42.20
2018-03-02T11:22:26.658Z,40.60
2018-03-02T11:23:26.635Z,40.60
2018-03-02T11:24:26.632Z,39.20
2018-03-02T11:25:26.620Z,40.10
2018-03-02T11:26:26.622Z,42.80
2018-03-02T11:27:26.619Z,41.50
2018-03-02T11:28:26.618Z,41.40
2018-03-02T11:29:26.609Z,42.60
2018-03-02T11:30:26.613Z,41.00
2018-03-02T11:31:26.605Z,41.30
2018-03-02T11:32:26.598Z,40.70
2018-03-02T11:33:26.588Z,40.80
2018-03-02T11:34:26.582Z,41.00
2018-03-02T11:35:26.585Z,41.70
2018-03-02T11:36:26.731Z,40.50
2018-03-02T11:37:26.578Z,41.30
2018-03-02T11:38:26.567Z,42.00
2018-03-02T11:39:26.571Z,42.10
2018-03-02T11:40:26.568Z,41.50
2018-03-02T11:41:26.565Z,40.00
2018-03-02T11:42:26.557Z,39.80
2018-03-02T11:43:26.557Z,39.80
2018-03-02T11:44:26.554Z,39.40
2018-03-02T11:45:26.544Z,39.10
2018-03-02T11:46:26.544Z,36.90
2018-03-02T11:47:26.541Z,39.50
2018-03-02T11:48:26.533Z,37.90
2018-03-02T11:49:26.531Z,35.40
2018-03-02T11:50:26.526Z,34.40
2018-03-02T11:51:26.516Z,32.10
2018-03-02T11:52:26.521Z,32.20
2018-03-02T11:53:26.509Z,28.70
2018-03-02T11:54:26.513Z,29.00
2018-03-02T11:55:26.510Z,28.70
2018-03-02T11:56:26.506Z,30.50
2018-03-02T11:57:26.515Z,33.60
2018-03-02T11:58:26.530Z,31.90
2018-03-02T11:59:26.507Z,33.60
2018-03-02T12:00:26.506Z,33.70
2018-03-02T12:01:26.502Z,31.00
2018-03-02T12:02:26.496Z,31.50
2018-03-02T12:03:26.487Z,32.00
2018-03-02T12:04:26.489Z,32.60
2018-03-02T12:05:26.487Z,31.10
2018-03-02T12:06:26.482Z,31.10
2018-03-02T12:07:26.479Z,31.50
2018-03-02T12:08:26.476Z,27.00
2018-03-02T12:09:26.473Z,25.70
2018-03-02T12:10:26.470Z,25.10
2018-03-02T12:11:26.565Z,22.30
2018-03-02T12:12:26.464Z,22.50
2018-03-02T12:13:26.453Z,21.80
2018-03-02T12:14:26.457Z,21.40
2018-03-02T12:15:26.446Z,25.40
2018-03-02T12:16:26.443Z,26.50
2018-03-02T12:17:26.445Z,25.50
2018-03-02T12:18:26.442Z,25.30
2018-03-02T12:19:26.438Z,25.60
2018-03-02T12:20:26.434Z,24.40
2018-03-02T12:21:26.432Z,23.10
2018-03-02T12:22:26.435Z,25.10
2018-03-02T12:23:26.431Z,24.20
2018-03-02T12:24:26.423Z,24.80
2018-03-02T12:25:26.419Z,24.90
2018-03-02T12:26:26.416Z,25.50
2018-03-02T12:27:26.414Z,24.40
2018-03-02T12:28:26.424Z,23.30
2018-03-02T12:29:26.405Z,20.10
2018-03-02T12:30:26.404Z,21.10
2018-03-02T12:31:26.400Z,20.10
2018-03-02T12:32:26.380Z,17.50
2018-03-02T12:33:26.378Z,13.50
2018-03-02T12:34:26.392Z,10.60
2018-03-02T12:35:26.390Z,10.00
2018-03-02T12:36:26.389Z,9.60
2018-03-02T12:37:26.385Z,9.50
2018-03-02T12:38:26.383Z,8.10
2018-03-02T12:39:26.379Z,8.80
2018-03-02T12:40:26.378Z,9.30
2018-03-02T12:41:26.386Z,9.80
2018-03-02T12:42:26.378Z,9.50
2018-03-02T12:43:26.375Z,9.60
2018-03-02T12:44:26.422Z,8.70
2018-03-02T12:45:26.372Z,9.50
2018-03-02T12:46:26.366Z,11.50
2018-03-02T12:47:26.369Z,14.00
2018-03-02T12:48:26.367Z,12.90
2018-03-02T12:49:26.362Z,12.50
2018-03-02T12:50:26.361Z,12.00
2018-03-02T12:51:26.359Z,10.60
2018-03-02T12:52:26.358Z,9.80
2018-03-02T12:53:26.358Z,9.60